sensor_id;sensor_type;location;lat;lon;timestamp;P1;durP1;ratioP1;P2;durP2;ratioP2
21297;SDS011;10808;48.010;11.326;2023-01-05T00:01:56;0.80;;;0.40;;
21297;SDS011;10808;48.010;11.326;2023-01-05T00:04:22;0.80;;;0.40;;
21297;SDS011;10808;48.010;11.326;2023-01-05T00:06:50;0.50;;;0.40;;
21297;SDS011;10808;48.010;11.326;2023-01-05T00:09:45;0.40;;;0.40;;
21297;SDS011;10808;48.010;11.326;2023-01-05T00:12:11;0.90;;;0.40;;
21297;SDS011;10808;48.010;11.326;2023-01-05T00:14:56;0.30;;;0.30;;
21297;SDS011;10808;48.010;11.326;2023-01-05T00:17:53;0.30;;;0.30;;
21297;SDS011;10808;48.010;11.326;2023-01-05T00:20:37;0.60;;;0.40;;
21297;SDS011;10808;48.010;11.326;2023-01-05T00:23:22;0.30;;;0.30;;
21297;SDS011;10808;48.010;11.326;2023-01-05T00:25:48;0.30;;;0.30;;
21297;SDS011;10808;48.010;11.326;2023-01-05T00:28:17;0.30;;;0.30;;
21297;SDS011;10808;48.010;11.326;2023-01-05T00:30:45;0.82;;;0.40;;
21297;SDS011;10808;48.010;11.326;2023-01-05T00:33:12;0.80;;;0.50;;
21297;SDS011;10808;48.010;11.326;2023-01-05T00:35:40;0.32;;;0.32;;
21297;SDS011;10808;48.010;11.326;2023-01-05T00:38:08;0.40;;;0.40;;
21297;SDS011;10808;48.010;11.326;2023-01-05T00:40:34;0.20;;;0.20;;
21297;SDS011;10808;48.010;11.326;2023-01-05T00:43:00;0.30;;;0.30;;
21297;SDS011;10808;48.010;11.326;2023-01-05T00:45:28;0.30;;;0.30;;
21297;SDS011;10808;48.010;11.326;2023-01-05T00:47:54;0.30;;;0.30;;
21297;SDS011;10808;48.010;11.326;2023-01-05T00:50:21;1.60;;;0.30;;
21297;SDS011;10808;48.010;11.326;2023-01-05T00:52:47;0.30;;;0.30;;
21297;SDS011;10808;48.010;11.326;2023-01-05T00:55:15;0.40;;;0.40;;
21297;SDS011;10808;48.010;11.326;2023-01-05T00:57:45;0.38;;;0.38;;
21297;SDS011;10808;48.010;11.326;2023-01-05T01:00:13;0.30;;;0.30;;
21297;SDS011;10808;48.010;11.326;2023-01-05T01:02:42;0.25;;;0.25;;
21297;SDS011;10808;48.010;11.326;2023-01-05T01:05:08;0.35;;;0.35;;
21297;SDS011;10808;48.010;11.326;2023-01-05T01:07:35;0.25;;;0.25;;
21297;SDS011;10808;48.010;11.326;2023-01-05T01:10:01;0.60;;;0.30;;
21297;SDS011;10808;48.010;11.326;2023-01-05T01:12:28;0.80;;;0.40;;
21297;SDS011;10808;48.010;11.326;2023-01-05T01:14:54;0.30;;;0.30;;
21297;SDS011;10808;48.010;11.326;2023-01-05T01:17:20;0.68;;;0.40;;
21297;SDS011;10808;48.010;11.326;2023-01-05T01:19:46;0.52;;;0.40;;
21297;SDS011;10808;48.010;11.326;2023-01-05T01:22:14;0.63;;;0.43;;
21297;SDS011;10808;48.010;11.326;2023-01-05T01:24:40;0.30;;;0.30;;
21297;SDS011;10808;48.010;11.326;2023-01-05T01:27:06;0.40;;;0.40;;
21297;SDS011;10808;48.010;11.326;2023-01-05T01:29:33;0.30;;;0.30;;
21297;SDS011;10808;48.010;11.326;2023-01-05T01:31:59;0.30;;;0.30;;
21297;SDS011;10808;48.010;11.326;2023-01-05T01:34:25;0.40;;;0.30;;
21297;SDS011;10808;48.010;11.326;2023-01-05T01:36:53;0.30;;;0.30;;
21297;SDS011;10808;48.010;11.326;2023-01-05T01:39:20;0.40;;;0.40;;
21297;SDS011;10808;48.010;11.326;2023-01-05T01:41:46;0.30;;;0.30;;
21297;SDS011;10808;48.010;11.326;2023-01-05T01:47:39;0.30;;;0.30;;
21297;SDS011;10808;48.010;11.326;2023-01-05T01:50:17;0.30;;;0.30;;
21297;SDS011;10808;48.010;11.326;2023-01-05T01:52:47;0.40;;;0.33;;
21297;SDS011;10808;48.010;11.326;2023-01-05T01:55:16;0.88;;;0.30;;
21297;SDS011;10808;48.010;11.326;2023-01-05T01:57:44;0.30;;;0.30;;
21297;SDS011;10808;48.010;11.326;2023-01-05T02:00:14;0.30;;;0.30;;
21297;SDS011;10808;48.010;11.326;2023-01-05T02:02:44;0.30;;;0.30;;
21297;SDS011;10808;48.010;11.326;2023-01-05T02:05:30;0.80;;;0.40;;
21297;SDS011;10808;48.010;11.326;2023-01-05T02:08:00;0.73;;;0.45;;
21297;SDS011;10808;48.010;11.326;2023-01-05T02:31:47;0.40;;;0.40;;
21297;SDS011;10808;48.010;11.326;2023-01-05T02:37:31;0.40;;;0.40;;
21297;SDS011;10808;48.010;11.326;2023-01-05T02:40:30;0.50;;;0.40;;
21297;SDS011;10808;48.010;11.326;2023-01-05T02:43:09;0.47;;;0.32;;
21297;SDS011;10808;48.010;11.326;2023-01-05T02:45:39;0.30;;;0.30;;
21297;SDS011;10808;48.010;11.326;2023-01-05T02:48:05;0.90;;;0.40;;
21297;SDS011;10808;48.010;11.326;2023-01-05T02:50:49;0.40;;;0.40;;
21297;SDS011;10808;48.010;11.326;2023-01-05T02:53:44;1.27;;;0.35;;
21297;SDS011;10808;48.010;11.326;2023-01-05T02:59:36;0.40;;;0.40;;
21297;SDS011;10808;48.010;11.326;2023-01-05T03:02:09;0.47;;;0.40;;
21297;SDS011;10808;48.010;11.326;2023-01-05T03:04:50;0.30;;;0.30;;
21297;SDS011;10808;48.010;11.326;2023-01-05T03:07:23;0.38;;;0.30;;
21297;SDS011;10808;48.010;11.326;2023-01-05T03:09:53;0.50;;;0.40;;
21297;SDS011;10808;48.010;11.326;2023-01-05T03:12:26;1.20;;;0.30;;
21297;SDS011;10808;48.010;11.326;2023-01-05T03:17:50;0.63;;;0.40;;
21297;SDS011;10808;48.010;11.326;2023-01-05T03:20:24;1.67;;;0.40;;
21297;SDS011;10808;48.010;11.326;2023-01-05T03:22:54;0.40;;;0.40;;
21297;SDS011;10808;48.010;11.326;2023-01-05T03:25:42;0.40;;;0.40;;
21297;SDS011;10808;48.010;11.326;2023-01-05T03:28:44;0.30;;;0.30;;
21297;SDS011;10808;48.010;11.326;2023-01-05T03:31:43;0.68;;;0.38;;
21297;SDS011;10808;48.010;11.326;2023-01-05T03:34:52;0.57;;;0.50;;
21297;SDS011;10808;48.010;11.326;2023-01-05T03:37:50;0.30;;;0.30;;
21297;SDS011;10808;48.010;11.326;2023-01-05T03:40:27;0.65;;;0.40;;
21297;SDS011;10808;48.010;11.326;2023-01-05T03:43:04;0.30;;;0.30;;
21297;SDS011;10808;48.010;11.326;2023-01-05T03:45:42;0.40;;;0.40;;
21297;SDS011;10808;48.010;11.326;2023-01-05T03:48:10;0.30;;;0.30;;
21297;SDS011;10808;48.010;11.326;2023-01-05T03:50:36;0.30;;;0.30;;
21297;SDS011;10808;48.010;11.326;2023-01-05T03:53:03;0.40;;;0.35;;
21297;SDS011;10808;48.010;11.326;2023-01-05T03:55:41;0.40;;;0.30;;
21297;SDS011;10808;48.010;11.326;2023-01-05T03:58:07;0.50;;;0.30;;
21297;SDS011;10808;48.010;11.326;2023-01-05T04:00:33;0.30;;;0.30;;
21297;SDS011;10808;48.010;11.326;2023-01-05T04:03:01;0.30;;;0.30;;
21297;SDS011;10808;48.010;11.326;2023-01-05T04:05:29;0.40;;;0.40;;
21297;SDS011;10808;48.010;11.326;2023-01-05T04:07:56;0.50;;;0.40;;
21297;SDS011;10808;48.010;11.326;2023-01-05T04:10:22;0.40;;;0.40;;
21297;SDS011;10808;48.010;11.326;2023-01-05T04:12:50;0.30;;;0.30;;
21297;SDS011;10808;48.010;11.326;2023-01-05T04:15:17;0.37;;;0.30;;
21297;SDS011;10808;48.010;11.326;2023-01-05T04:17:49;0.47;;;0.30;;
21297;SDS011;10808;48.010;11.326;2023-01-05T04:20:19;0.68;;;0.30;;
21297;SDS011;10808;48.010;11.326;2023-01-05T04:22:46;0.70;;;0.30;;
21297;SDS011;10808;48.010;11.326;2023-01-05T04:25:12;0.30;;;0.30;;
21297;SDS011;10808;48.010;11.326;2023-01-05T04:27:41;0.40;;;0.40;;
21297;SDS011;10808;48.010;11.326;2023-01-05T04:30:08;0.40;;;0.40;;
21297;SDS011;10808;48.010;11.326;2023-01-05T04:32:34;0.50;;;0.40;;
21297;SDS011;10808;48.010;11.326;2023-01-05T04:35:00;0.50;;;0.40;;
21297;SDS011;10808;48.010;11.326;2023-01-05T04:37:31;0.40;;;0.40;;
21297;SDS011;10808;48.010;11.326;2023-01-05T04:40:05;0.30;;;0.25;;
21297;SDS011;10808;48.010;11.326;2023-01-05T04:42:35;0.90;;;0.20;;
21297;SDS011;10808;48.010;11.326;2023-01-05T04:45:03;0.35;;;0.35;;
21297;SDS011;10808;48.010;11.326;2023-01-05T04:47:29;0.70;;;0.50;;
21297;SDS011;10808;48.010;11.326;2023-01-05T04:50:00;0.30;;;0.30;;
21297;SDS011;10808;48.010;11.326;2023-01-05T04:52:28;0.30;;;0.30;;
21297;SDS011;10808;48.010;11.326;2023-01-05T04:54:56;0.40;;;0.40;;
21297;SDS011;10808;48.010;11.326;2023-01-05T04:57:23;0.30;;;0.30;;
21297;SDS011;10808;48.010;11.326;2023-01-05T04:59:52;0.25;;;0.25;;
21297;SDS011;10808;48.010;11.326;2023-01-05T05:02:18;0.40;;;0.40;;
21297;SDS011;10808;48.010;11.326;2023-01-05T05:04:44;0.45;;;0.40;;
21297;SDS011;10808;48.010;11.326;2023-01-05T05:07:13;0.40;;;0.40;;
21297;SDS011;10808;48.010;11.326;2023-01-05T05:09:39;0.40;;;0.40;;
21297;SDS011;10808;48.010;11.326;2023-01-05T05:12:05;0.60;;;0.50;;
21297;SDS011;10808;48.010;11.326;2023-01-05T05:14:32;0.80;;;0.50;;
21297;SDS011;10808;48.010;11.326;2023-01-05T05:16:59;1.10;;;0.50;;
21297;SDS011;10808;48.010;11.326;2023-01-05T05:19:25;0.70;;;0.40;;
21297;SDS011;10808;48.010;11.326;2023-01-05T05:21:51;0.80;;;0.60;;
21297;SDS011;10808;48.010;11.326;2023-01-05T05:24:18;0.50;;;0.50;;
21297;SDS011;10808;48.010;11.326;2023-01-05T05:26:44;0.50;;;0.50;;
21297;SDS011;10808;48.010;11.326;2023-01-05T05:29:12;0.90;;;0.40;;
21297;SDS011;10808;48.010;11.326;2023-01-05T05:31:42;0.70;;;0.50;;
21297;SDS011;10808;48.010;11.326;2023-01-05T05:34:08;0.60;;;0.40;;
21297;SDS011;10808;48.010;11.326;2023-01-05T05:36:34;0.45;;;0.40;;
21297;SDS011;10808;48.010;11.326;2023-01-05T05:39:01;0.38;;;0.30;;
21297;SDS011;10808;48.010;11.326;2023-01-05T05:41:29;0.75;;;0.50;;
21297;SDS011;10808;48.010;11.326;2023-01-05T05:44:14;1.02;;;0.50;;
21297;SDS011;10808;48.010;11.326;2023-01-05T05:46:41;0.90;;;0.50;;
21297;SDS011;10808;48.010;11.326;2023-01-05T05:49:07;0.40;;;0.40;;
21297;SDS011;10808;48.010;11.326;2023-01-05T05:51:34;0.40;;;0.40;;
21297;SDS011;10808;48.010;11.326;2023-01-05T05:54:00;0.47;;;0.40;;
21297;SDS011;10808;48.010;11.326;2023-01-05T05:56:26;1.13;;;0.40;;
21297;SDS011;10808;48.010;11.326;2023-01-05T05:58:53;0.40;;;0.40;;
21297;SDS011;10808;48.010;11.326;2023-01-05T06:01:19;0.93;;;0.50;;
21297;SDS011;10808;48.010;11.326;2023-01-05T06:03:45;0.40;;;0.40;;
21297;SDS011;10808;48.010;11.326;2023-01-05T06:06:11;0.50;;;0.50;;
21297;SDS011;10808;48.010;11.326;2023-01-05T06:08:37;0.70;;;0.40;;
21297;SDS011;10808;48.010;11.326;2023-01-05T06:11:04;1.55;;;0.40;;
21297;SDS011;10808;48.010;11.326;2023-01-05T06:13:30;0.80;;;0.40;;
21297;SDS011;10808;48.010;11.326;2023-01-05T06:16:02;0.50;;;0.50;;
21297;SDS011;10808;48.010;11.326;2023-01-05T06:18:32;0.82;;;0.70;;
21297;SDS011;10808;48.010;11.326;2023-01-05T06:20:58;0.52;;;0.50;;
21297;SDS011;10808;48.010;11.326;2023-01-05T06:26:04;2.63;;;2.05;;
21297;SDS011;10808;48.010;11.326;2023-01-05T06:28:33;3.53;;;2.88;;
21297;SDS011;10808;48.010;11.326;2023-01-05T06:30:59;2.35;;;1.90;;
21297;SDS011;10808;48.010;11.326;2023-01-05T06:33:31;1.40;;;1.20;;
21297;SDS011;10808;48.010;11.326;2023-01-05T06:35:59;1.35;;;1.10;;
21297;SDS011;10808;48.010;11.326;2023-01-05T06:38:35;2.15;;;1.85;;
21297;SDS011;10808;48.010;11.326;2023-01-05T06:41:05;0.52;;;0.52;;
21297;SDS011;10808;48.010;11.326;2023-01-05T06:43:37;1.60;;;1.30;;
21297;SDS011;10808;48.010;11.326;2023-01-05T06:46:03;0.75;;;0.75;;
21297;SDS011;10808;48.010;11.326;2023-01-05T06:48:29;0.85;;;0.60;;
21297;SDS011;10808;48.010;11.326;2023-01-05T06:50:57;0.75;;;0.75;;
21297;SDS011;10808;48.010;11.326;2023-01-05T06:53:23;0.35;;;0.35;;
21297;SDS011;10808;48.010;11.326;2023-01-05T06:55:49;0.50;;;0.45;;
21297;SDS011;10808;48.010;11.326;2023-01-05T06:58:15;0.90;;;0.57;;
21297;SDS011;10808;48.010;11.326;2023-01-05T07:00:42;0.53;;;0.53;;
21297;SDS011;10808;48.010;11.326;2023-01-05T07:03:10;1.05;;;0.85;;
21297;SDS011;10808;48.010;11.326;2023-01-05T07:05:38;4.13;;;2.70;;
21297;SDS011;10808;48.010;11.326;2023-01-05T07:08:05;0.52;;;0.52;;
21297;SDS011;10808;48.010;11.326;2023-01-05T07:10:31;1.02;;;0.80;;
21297;SDS011;10808;48.010;11.326;2023-01-05T07:12:57;0.90;;;0.80;;
21297;SDS011;10808;48.010;11.326;2023-01-05T07:15:24;0.70;;;0.70;;
21297;SDS011;10808;48.010;11.326;2023-01-05T07:17:51;0.80;;;0.80;;
21297;SDS011;10808;48.010;11.326;2023-01-05T07:20:17;1.10;;;1.00;;
21297;SDS011;10808;48.010;11.326;2023-01-05T07:22:44;0.80;;;0.80;;
21297;SDS011;10808;48.010;11.326;2023-01-05T07:25:11;1.13;;;0.82;;
21297;SDS011;10808;48.010;11.326;2023-01-05T07:27:37;1.20;;;1.10;;
21297;SDS011;10808;48.010;11.326;2023-01-05T07:30:05;0.70;;;0.70;;
21297;SDS011;10808;48.010;11.326;2023-01-05T07:32:44;0.90;;;0.90;;
21297;SDS011;10808;48.010;11.326;2023-01-05T07:35:11;0.87;;;0.70;;
21297;SDS011;10808;48.010;11.326;2023-01-05T07:37:40;0.68;;;0.68;;
21297;SDS011;10808;48.010;11.326;2023-01-05T07:40:09;0.70;;;0.70;;
21297;SDS011;10808;48.010;11.326;2023-01-05T07:42:37;0.95;;;0.65;;
21297;SDS011;10808;48.010;11.326;2023-01-05T07:45:03;0.50;;;0.50;;
21297;SDS011;10808;48.010;11.326;2023-01-05T07:47:30;0.50;;;0.50;;
21297;SDS011;10808;48.010;11.326;2023-01-05T07:49:56;0.63;;;0.63;;
21297;SDS011;10808;48.010;11.326;2023-01-05T07:52:22;0.60;;;0.60;;
21297;SDS011;10808;48.010;11.326;2023-01-05T07:54:48;0.77;;;0.60;;
21297;SDS011;10808;48.010;11.326;2023-01-05T07:57:14;1.00;;;0.50;;
21297;SDS011;10808;48.010;11.326;2023-01-05T07:59:41;0.65;;;0.65;;
21297;SDS011;10808;48.010;11.326;2023-01-05T08:02:07;0.60;;;0.60;;
21297;SDS011;10808;48.010;11.326;2023-01-05T08:04:36;1.30;;;0.70;;
21297;SDS011;10808;48.010;11.326;2023-01-05T08:07:04;0.57;;;0.57;;
21297;SDS011;10808;48.010;11.326;2023-01-05T08:09:38;0.60;;;0.60;;
21297;SDS011;10808;48.010;11.326;2023-01-05T08:12:40;0.57;;;0.57;;
21297;SDS011;10808;48.010;11.326;2023-01-05T08:15:24;0.60;;;0.50;;
21297;SDS011;10808;48.010;11.326;2023-01-05T08:17:50;0.50;;;0.50;;
21297;SDS011;10808;48.010;11.326;2023-01-05T08:20:16;0.85;;;0.60;;
21297;SDS011;10808;48.010;11.326;2023-01-05T08:22:43;0.98;;;0.60;;
21297;SDS011;10808;48.010;11.326;2023-01-05T08:25:14;0.70;;;0.52;;
21297;SDS011;10808;48.010;11.326;2023-01-05T08:27:43;0.50;;;0.50;;
21297;SDS011;10808;48.010;11.326;2023-01-05T08:30:10;0.50;;;0.40;;
21297;SDS011;10808;48.010;11.326;2023-01-05T08:32:37;0.50;;;0.50;;
21297;SDS011;10808;48.010;11.326;2023-01-05T08:35:03;0.60;;;0.60;;
21297;SDS011;10808;48.010;11.326;2023-01-05T08:37:30;0.88;;;0.57;;
21297;SDS011;10808;48.010;11.326;2023-01-05T08:39:56;0.60;;;0.60;;
21297;SDS011;10808;48.010;11.326;2023-01-05T08:42:22;1.02;;;0.85;;
21297;SDS011;10808;48.010;11.326;2023-01-05T08:44:48;0.50;;;0.50;;
21297;SDS011;10808;48.010;11.326;2023-01-05T08:47:14;0.55;;;0.50;;
21297;SDS011;10808;48.010;11.326;2023-01-05T08:49:40;0.40;;;0.40;;
21297;SDS011;10808;48.010;11.326;2023-01-05T08:52:06;0.30;;;0.30;;
21297;SDS011;10808;48.010;11.326;2023-01-05T08:54:33;0.73;;;0.40;;
21297;SDS011;10808;48.010;11.326;2023-01-05T08:56:59;0.40;;;0.40;;
21297;SDS011;10808;48.010;11.326;2023-01-05T08:59:25;0.60;;;0.60;;
21297;SDS011;10808;48.010;11.326;2023-01-05T09:01:52;0.50;;;0.50;;
21297;SDS011;10808;48.010;11.326;2023-01-05T09:04:18;0.40;;;0.40;;
21297;SDS011;10808;48.010;11.326;2023-01-05T09:06:44;3.00;;;2.30;;
21297;SDS011;10808;48.010;11.326;2023-01-05T09:09:10;0.93;;;0.93;;
21297;SDS011;10808;48.010;11.326;2023-01-05T09:11:36;1.08;;;0.90;;
21297;SDS011;10808;48.010;11.326;2023-01-05T09:14:02;1.00;;;0.90;;
21297;SDS011;10808;48.010;11.326;2023-01-05T09:16:30;0.80;;;0.80;;
21297;SDS011;10808;48.010;11.326;2023-01-05T09:18:58;1.00;;;0.90;;
21297;SDS011;10808;48.010;11.326;2023-01-05T09:21:28;0.40;;;0.40;;
21297;SDS011;10808;48.010;11.326;2023-01-05T09:23:54;0.57;;;0.57;;
21297;SDS011;10808;48.010;11.326;2023-01-05T09:26:20;0.60;;;0.47;;
21297;SDS011;10808;48.010;11.326;2023-01-05T09:28:46;0.90;;;0.68;;
21297;SDS011;10808;48.010;11.326;2023-01-05T09:31:17;1.75;;;0.63;;
21297;SDS011;10808;48.010;11.326;2023-01-05T09:33:44;0.40;;;0.40;;
21297;SDS011;10808;48.010;11.326;2023-01-05T09:36:13;1.15;;;0.40;;
21297;SDS011;10808;48.010;11.326;2023-01-05T09:38:49;1.10;;;0.68;;
21297;SDS011;10808;48.010;11.326;2023-01-05T09:43:54;0.80;;;0.70;;
21297;SDS011;10808;48.010;11.326;2023-01-05T09:46:32;0.90;;;0.70;;
21297;SDS011;10808;48.010;11.326;2023-01-05T09:49:03;0.60;;;0.60;;
21297;SDS011;10808;48.010;11.326;2023-01-05T09:51:32;1.30;;;1.00;;
21297;SDS011;10808;48.010;11.326;2023-01-05T09:54:01;0.95;;;0.75;;
21297;SDS011;10808;48.010;11.326;2023-01-05T09:56:35;0.43;;;0.43;;
21297;SDS011;10808;48.010;11.326;2023-01-05T10:01:50;0.45;;;0.40;;
21297;SDS011;10808;48.010;11.326;2023-01-05T10:04:22;1.15;;;0.60;;
21297;SDS011;10808;48.010;11.326;2023-01-05T10:07:00;0.50;;;0.50;;
21297;SDS011;10808;48.010;11.326;2023-01-05T10:09:38;0.67;;;0.60;;
21297;SDS011;10808;48.010;11.326;2023-01-05T10:12:11;0.50;;;0.50;;
21297;SDS011;10808;48.010;11.326;2023-01-05T10:15:18;0.98;;;0.88;;
21297;SDS011;10808;48.010;11.326;2023-01-05T10:17:46;1.40;;;1.20;;
21297;SDS011;10808;48.010;11.326;2023-01-05T10:22:52;0.87;;;0.53;;
21297;SDS011;10808;48.010;11.326;2023-01-05T10:25:32;0.65;;;0.60;;
21297;SDS011;10808;48.010;11.326;2023-01-05T10:28:09;0.90;;;0.70;;
21297;SDS011;10808;48.010;11.326;2023-01-05T10:35:59;0.63;;;0.63;;
21297;SDS011;10808;48.010;11.326;2023-01-05T10:46:38;1.13;;;0.60;;
21297;SDS011;10808;48.010;11.326;2023-01-05T10:49:07;0.75;;;0.35;;
21297;SDS011;10808;48.010;11.326;2023-01-05T10:51:38;0.63;;;0.63;;
21297;SDS011;10808;48.010;11.326;2023-01-05T10:54:05;0.82;;;0.60;;
21297;SDS011;10808;48.010;11.326;2023-01-05T10:56:45;1.52;;;1.15;;
21297;SDS011;10808;48.010;11.326;2023-01-05T10:59:11;0.50;;;0.38;;
21297;SDS011;10808;48.010;11.326;2023-01-05T11:01:42;0.70;;;0.68;;
21297;SDS011;10808;48.010;11.326;2023-01-05T11:04:20;0.90;;;0.57;;
21297;SDS011;10808;48.010;11.326;2023-01-05T11:06:49;0.63;;;0.63;;
21297;SDS011;10808;48.010;11.326;2023-01-05T11:09:27;0.50;;;0.50;;
21297;SDS011;10808;48.010;11.326;2023-01-05T11:11:58;1.63;;;1.08;;
21297;SDS011;10808;48.010;11.326;2023-01-05T11:14:27;0.90;;;0.70;;
21297;SDS011;10808;48.010;11.326;2023-01-05T11:16:59;1.30;;;0.90;;
21297;SDS011;10808;48.010;11.326;2023-01-05T11:19:43;1.20;;;0.80;;
21297;SDS011;10808;48.010;11.326;2023-01-05T11:25:30;0.70;;;0.65;;
21297;SDS011;10808;48.010;11.326;2023-01-05T11:28:18;0.60;;;0.60;;
21297;SDS011;10808;48.010;11.326;2023-01-05T11:30:53;1.25;;;1.15;;
21297;SDS011;10808;48.010;11.326;2023-01-05T11:33:27;1.30;;;1.20;;
21297;SDS011;10808;48.010;11.326;2023-01-05T11:35:55;0.80;;;0.80;;
21297;SDS011;10808;48.010;11.326;2023-01-05T11:38:23;0.70;;;0.70;;
21297;SDS011;10808;48.010;11.326;2023-01-05T11:40:55;0.60;;;0.60;;
21297;SDS011;10808;48.010;11.326;2023-01-05T11:43:23;0.80;;;0.75;;
21297;SDS011;10808;48.010;11.326;2023-01-05T11:45:59;1.30;;;0.60;;
21297;SDS011;10808;48.010;11.326;2023-01-05T11:48:29;1.08;;;0.75;;
21297;SDS011;10808;48.010;11.326;2023-01-05T11:50:56;0.60;;;0.60;;
21297;SDS011;10808;48.010;11.326;2023-01-05T11:58:41;0.60;;;0.60;;
21297;SDS011;10808;48.010;11.326;2023-01-05T12:07:45;0.50;;;0.50;;
21297;SDS011;10808;48.010;11.326;2023-01-05T12:10:40;0.55;;;0.55;;
21297;SDS011;10808;48.010;11.326;2023-01-05T12:28:35;0.85;;;0.60;;
21297;SDS011;10808;48.010;11.326;2023-01-05T12:34:05;1.13;;;1.05;;
21297;SDS011;10808;48.010;11.326;2023-01-05T12:39:38;0.82;;;0.80;;
21297;SDS011;10808;48.010;11.326;2023-01-05T12:42:27;1.30;;;1.00;;
21297;SDS011;10808;48.010;11.326;2023-01-05T12:48:36;0.60;;;0.60;;
21297;SDS011;10808;48.010;11.326;2023-01-05T12:51:46;1.45;;;0.70;;
21297;SDS011;10808;48.010;11.326;2023-01-05T12:57:08;0.70;;;0.70;;
21297;SDS011;10808;48.010;11.326;2023-01-05T13:02:31;0.70;;;0.70;;
21297;SDS011;10808;48.010;11.326;2023-01-05T13:05:18;0.60;;;0.60;;
21297;SDS011;10808;48.010;11.326;2023-01-05T13:13:36;0.70;;;0.70;;
21297;SDS011;10808;48.010;11.326;2023-01-05T13:16:28;0.80;;;0.80;;
21297;SDS011;10808;48.010;11.326;2023-01-05T13:19:11;0.80;;;0.80;;
21297;SDS011;10808;48.010;11.326;2023-01-05T13:22:10;0.70;;;0.70;;
21297;SDS011;10808;48.010;11.326;2023-01-05T13:24:53;0.90;;;0.88;;
21297;SDS011;10808;48.010;11.326;2023-01-05T13:27:41;0.60;;;0.60;;
21297;SDS011;10808;48.010;11.326;2023-01-05T13:30:21;0.70;;;0.65;;
21297;SDS011;10808;48.010;11.326;2023-01-05T13:33:24;0.70;;;0.70;;
21297;SDS011;10808;48.010;11.326;2023-01-05T13:53:18;0.82;;;0.73;;
21297;SDS011;10808;48.010;11.326;2023-01-05T13:55:51;1.00;;;0.80;;
21297;SDS011;10808;48.010;11.326;2023-01-05T14:01:03;1.08;;;0.75;;
21297;SDS011;10808;48.010;11.326;2023-01-05T14:03:39;1.35;;;0.90;;
21297;SDS011;10808;48.010;11.326;2023-01-05T14:06:19;0.80;;;0.80;;
21297;SDS011;10808;48.010;11.326;2023-01-05T14:09:37;1.42;;;0.70;;
21297;SDS011;10808;48.010;11.326;2023-01-05T14:28:21;1.58;;;1.08;;
21297;SDS011;10808;48.010;11.326;2023-01-05T14:36:23;2.20;;;1.50;;
21297;SDS011;10808;48.010;11.326;2023-01-05T14:38:58;1.85;;;0.90;;
21297;SDS011;10808;48.010;11.326;2023-01-05T14:41:26;1.95;;;1.05;;
21297;SDS011;10808;48.010;11.326;2023-01-05T14:43:59;3.15;;;1.08;;
21297;SDS011;10808;48.010;11.326;2023-01-05T14:46:28;2.50;;;1.20;;
21297;SDS011;10808;48.010;11.326;2023-01-05T14:51:51;2.95;;;1.15;;
21297;SDS011;10808;48.010;11.326;2023-01-05T14:54:33;1.97;;;0.90;;
21297;SDS011;10808;48.010;11.326;2023-01-05T15:00:22;2.42;;;1.10;;
21297;SDS011;10808;48.010;11.326;2023-01-05T15:05:24;2.70;;;0.98;;
21297;SDS011;10808;48.010;11.326;2023-01-05T15:08:03;1.20;;;1.10;;
21297;SDS011;10808;48.010;11.326;2023-01-05T15:33:38;1.50;;;0.93;;
21297;SDS011;10808;48.010;11.326;2023-01-05T15:39:22;1.05;;;0.95;;
21297;SDS011;10808;48.010;11.326;2023-01-05T15:42:08;2.17;;;1.33;;
21297;SDS011;10808;48.010;11.326;2023-01-05T15:44:41;2.22;;;1.30;;
21297;SDS011;10808;48.010;11.326;2023-01-05T15:47:11;1.67;;;1.00;;
21297;SDS011;10808;48.010;11.326;2023-01-05T15:49:37;1.85;;;1.02;;
21297;SDS011;10808;48.010;11.326;2023-01-05T15:52:04;1.52;;;1.00;;
21297;SDS011;10808;48.010;11.326;2023-01-05T15:54:40;1.58;;;1.00;;
21297;SDS011;10808;48.010;11.326;2023-01-05T15:57:17;1.08;;;0.90;;
21297;SDS011;10808;48.010;11.326;2023-01-05T15:59:46;1.90;;;1.20;;
21297;SDS011;10808;48.010;11.326;2023-01-05T16:02:31;1.77;;;0.80;;
21297;SDS011;10808;48.010;11.326;2023-01-05T16:05:20;1.88;;;1.00;;
21297;SDS011;10808;48.010;11.326;2023-01-05T16:10:34;1.15;;;0.93;;
21297;SDS011;10808;48.010;11.326;2023-01-05T16:13:33;3.60;;;2.00;;
21297;SDS011;10808;48.010;11.326;2023-01-05T16:16:17;3.00;;;1.75;;
21297;SDS011;10808;48.010;11.326;2023-01-05T16:23:16;2.33;;;1.30;;
21297;SDS011;10808;48.010;11.326;2023-01-05T16:25:51;2.60;;;1.90;;
21297;SDS011;10808;48.010;11.326;2023-01-05T16:28:24;2.40;;;1.40;;
21297;SDS011;10808;48.010;11.326;2023-01-05T16:30:53;3.92;;;1.30;;
21297;SDS011;10808;48.010;11.326;2023-01-05T16:33:26;2.67;;;1.38;;
21297;SDS011;10808;48.010;11.326;2023-01-05T16:36:08;3.15;;;1.90;;
21297;SDS011;10808;48.010;11.326;2023-01-05T16:39:13;2.42;;;1.80;;
21297;SDS011;10808;48.010;11.326;2023-01-05T16:45:26;2.10;;;1.90;;
21297;SDS011;10808;48.010;11.326;2023-01-05T16:47:55;2.63;;;1.90;;
21297;SDS011;10808;48.010;11.326;2023-01-05T16:53:10;5.82;;;3.53;;
21297;SDS011;10808;48.010;11.326;2023-01-05T16:55:38;5.07;;;3.22;;
21297;SDS011;10808;48.010;11.326;2023-01-05T17:25:33;5.82;;;3.15;;
21297;SDS011;10808;48.010;11.326;2023-01-05T17:28:00;3.35;;;1.85;;
21297;SDS011;10808;48.010;11.326;2023-01-05T17:30:27;8.50;;;6.53;;
21297;SDS011;10808;48.010;11.326;2023-01-05T17:32:56;2.42;;;2.17;;
21297;SDS011;10808;48.010;11.326;2023-01-05T17:35:22;2.63;;;2.30;;
21297;SDS011;10808;48.010;11.326;2023-01-05T17:37:48;3.28;;;2.75;;
21297;SDS011;10808;48.010;11.326;2023-01-05T17:40:16;4.45;;;3.83;;
21297;SDS011;10808;48.010;11.326;2023-01-05T17:42:43;1.90;;;1.73;;
21297;SDS011;10808;48.010;11.326;2023-01-05T17:45:11;1.95;;;1.75;;
21297;SDS011;10808;48.010;11.326;2023-01-05T17:47:45;2.08;;;1.70;;
21297;SDS011;10808;48.010;11.326;2023-01-05T17:50:15;2.50;;;1.50;;
21297;SDS011;10808;48.010;11.326;2023-01-05T17:52:43;1.77;;;1.30;;
21297;SDS011;10808;48.010;11.326;2023-01-05T17:55:12;1.65;;;1.50;;
21297;SDS011;10808;48.010;11.326;2023-01-05T17:57:38;7.20;;;5.77;;
21297;SDS011;10808;48.010;11.326;2023-01-05T18:00:07;12.27;;;9.95;;
21297;SDS011;10808;48.010;11.326;2023-01-05T18:02:36;8.85;;;5.28;;
21297;SDS011;10808;48.010;11.326;2023-01-05T18:05:02;7.38;;;5.57;;
21297;SDS011;10808;48.010;11.326;2023-01-05T18:07:30;6.50;;;5.53;;
21297;SDS011;10808;48.010;11.326;2023-01-05T18:09:56;6.43;;;5.22;;
21297;SDS011;10808;48.010;11.326;2023-01-05T18:12:23;4.85;;;3.50;;
21297;SDS011;10808;48.010;11.326;2023-01-05T18:14:50;11.63;;;6.40;;
21297;SDS011;10808;48.010;11.326;2023-01-05T18:17:17;16.15;;;9.40;;
21297;SDS011;10808;48.010;11.326;2023-01-05T18:19:43;8.15;;;6.43;;
21297;SDS011;10808;48.010;11.326;2023-01-05T18:22:10;5.60;;;4.50;;
21297;SDS011;10808;48.010;11.326;2023-01-05T18:24:40;3.30;;;2.92;;
21297;SDS011;10808;48.010;11.326;2023-01-05T18:27:06;2.80;;;2.00;;
21297;SDS011;10808;48.010;11.326;2023-01-05T18:29:35;3.42;;;2.60;;
21297;SDS011;10808;48.010;11.326;2023-01-05T18:32:02;5.18;;;3.65;;
21297;SDS011;10808;48.010;11.326;2023-01-05T18:34:29;6.18;;;4.65;;
21297;SDS011;10808;48.010;11.326;2023-01-05T18:36:55;15.57;;;11.43;;
21297;SDS011;10808;48.010;11.326;2023-01-05T18:39:22;8.23;;;6.33;;
21297;SDS011;10808;48.010;11.326;2023-01-05T18:41:51;3.50;;;3.10;;
21297;SDS011;10808;48.010;11.326;2023-01-05T18:44:17;4.93;;;3.50;;
21297;SDS011;10808;48.010;11.326;2023-01-05T18:46:44;2.13;;;1.92;;